createdAt,value
2022-08-12T00:00:37.048Z,59.24
2022-08-12T00:03:24.409Z,59.46
2022-08-12T00:06:10.272Z,59.51
2022-08-12T00:08:57.587Z,60.26
2022-08-12T00:11:45.412Z,61.00
2022-08-12T00:14:31.214Z,60.94
2022-08-12T00:17:17.066Z,61.94
2022-08-12T00:20:02.252Z,61.65
2022-08-12T00:22:58.830Z,62.32
2022-08-12T00:26:20.582Z,62.82
2022-08-12T00:29:01.473Z,62.69
2022-08-12T00:31:46.674Z,62.83
2022-08-12T00:34:34.210Z,63.16
2022-08-12T00:37:19.274Z,63.92
2022-08-12T00:40:11.524Z,64.64
2022-08-12T00:42:41.676Z,64.58
2022-08-12T00:45:09.404Z,64.83
2022-08-12T00:47:37.410Z,64.55
2022-08-12T00:50:06.124Z,66.93
2022-08-12T00:52:35.225Z,68.50
2022-08-12T00:55:03.605Z,68.84
2022-08-12T00:57:36.892Z,68.47
2022-08-12T01:00:10.674Z,69.36
2022-08-12T01:02:45.409Z,69.14
2022-08-12T01:05:32.985Z,69.05
2022-08-12T01:08:18.811Z,68.71
2022-08-12T01:11:06.146Z,69.64
2022-08-12T01:13:35.153Z,69.01
2022-08-12T01:16:04.717Z,69.04
2022-08-12T01:18:35.549Z,69.01
2022-08-12T01:21:17.233Z,70.03
2022-08-12T01:24:31.036Z,69.95
2022-08-12T01:26:51.178Z,70.55
2022-08-12T01:29:26.803Z,70.17
2022-08-12T01:31:57.876Z,69.76
2022-08-12T01:34:36.369Z,69.04
2022-08-12T01:37:06.596Z,69.28
2022-08-12T01:39:39.379Z,69.67
2022-08-12T01:42:28.229Z,69.01
2022-08-12T01:44:56.376Z,69.34
2022-08-12T01:47:31.548Z,69.58
2022-08-12T01:50:22.959Z,69.91
2022-08-12T01:52:55.475Z,69.65
2022-08-12T01:55:33.335Z,69.45
2022-08-12T01:58:55.320Z,69.41
2022-08-12T02:01:27.018Z,69.72
2022-08-12T02:04:43.457Z,69.36
2022-08-12T02:07:38.519Z,69.15
2022-08-12T02:10:50.289Z,70.16
2022-08-12T02:13:48.857Z,71.51
2022-08-12T02:16:25.553Z,71.90
2022-08-12T02:19:22.258Z,72.24
2022-08-12T02:22:20.090Z,72.43
2022-08-12T02:24:49.033Z,72.59
2022-08-12T02:27:19.207Z,71.77
2022-08-12T02:29:45.709Z,72.37
2022-08-12T02:32:14.448Z,72.61
2022-08-12T02:34:43.842Z,72.69
2022-08-12T02:37:13.824Z,72.77
2022-08-12T02:39:45.638Z,73.52
2022-08-12T02:42:15.269Z,72.96
2022-08-12T02:44:45.376Z,73.65
2022-08-12T02:47:58.893Z,74.08
2022-08-12T02:50:03.529Z,75.49
2022-08-12T02:52:36.212Z,75.42
2022-08-12T02:55:09.783Z,75.96
2022-08-12T02:57:36.352Z,75.68
2022-08-12T03:00:06.155Z,76.07
2022-08-12T03:02:38.785Z,76.54
2022-08-12T03:05:05.531Z,76.41
2022-08-12T03:07:59.435Z,76.12
2022-08-12T03:10:37.253Z,75.64
2022-08-12T03:13:07.030Z,75.43
2022-08-12T03:15:35.534Z,74.64
2022-08-12T03:18:23.579Z,75.18
2022-08-12T03:20:53.852Z,75.13
2022-08-12T03:23:30.373Z,74.71
2022-08-12T03:25:59.297Z,76.12
2022-08-12T03:28:46.989Z,76.33
2022-08-12T03:31:13.482Z,76.72
2022-08-12T03:33:54.060Z,76.06
2022-08-12T03:36:28.828Z,77.20
2022-08-12T03:39:19.420Z,77.67
2022-08-12T03:41:59.064Z,78.04
2022-08-12T03:44:52.847Z,77.36
2022-08-12T03:47:44.788Z,77.37
2022-08-12T03:50:30.179Z,77.55
2022-08-12T03:53:15.032Z,77.90
2022-08-12T03:56:00.251Z,78.42
2022-08-12T03:58:45.615Z,78.07
2022-08-12T04:01:14.676Z,77.85
2022-08-12T04:03:53.452Z,78.48
2022-08-12T04:06:35.287Z,78.46
2022-08-12T04:09:15.620Z,78.67
2022-08-12T04:12:02.651Z,77.91
2022-08-12T04:14:29.202Z,78.66
2022-08-12T04:16:57.185Z,79.58
2022-08-12T04:19:26.259Z,78.80
2022-08-12T04:22:01.163Z,79.81
2022-08-12T04:24:31.874Z,80.46
2022-08-12T04:26:58.411Z,81.21
2022-08-12T04:30:16.534Z,82.06
2022-08-12T04:32:16.587Z,80.92
2022-08-12T04:34:44.414Z,80.02
2022-08-12T04:37:12.573Z,80.49
2022-08-12T04:39:45.921Z,79.15
2022-08-12T04:42:13.063Z,76.16
2022-08-12T04:44:43.027Z,74.72
2022-08-12T04:47:16.850Z,73.73
2022-08-12T04:49:46.076Z,73.55
2022-08-12T04:52:15.781Z,73.90
2022-08-12T04:54:43.992Z,73.85
2022-08-12T04:57:10.711Z,73.76
2022-08-12T04:59:48.132Z,71.55
2022-08-12T05:02:22.420Z,68.39
2022-08-12T05:04:52.344Z,67.75
2022-08-12T05:07:20.522Z,65.75
2022-08-12T05:10:00.925Z,63.79
2022-08-12T05:12:34.544Z,62.12
2022-08-12T05:15:01.663Z,60.44
2022-08-12T05:17:30.367Z,59.75
2022-08-12T05:20:00.601Z,58.58
2022-08-12T05:22:27.757Z,57.99
2022-08-12T05:24:54.649Z,58.67
2022-08-12T05:27:23.386Z,57.02
2022-08-12T05:30:07.387Z,56.71
2022-08-12T05:32:36.936Z,55.36
2022-08-12T05:35:06.780Z,54.45
2022-08-12T05:37:34.912Z,53.53
2022-08-12T05:40:10.976Z,53.15
2022-08-12T05:42:38.787Z,53.65
2022-08-12T05:45:06.947Z,52.19
2022-08-12T05:47:52.769Z,52.20
2022-08-12T05:50:20.735Z,51.38
2022-08-12T05:52:48.834Z,51.29
2022-08-12T05:55:15.613Z,49.96
2022-08-12T05:57:44.187Z,49.51
2022-08-12T06:00:11.102Z,49.11
2022-08-12T06:02:39.405Z,48.90
2022-08-12T06:05:07.457Z,48.59
2022-08-12T06:08:01.386Z,48.37
2022-08-12T06:10:31.494Z,51.30
2022-08-12T06:13:00.277Z,53.44
2022-08-12T06:15:29.490Z,54.02
2022-08-12T06:18:13.564Z,54.89
2022-08-12T06:20:43.234Z,54.80
2022-08-12T06:23:10.610Z,53.94
2022-08-12T06:25:37.436Z,52.69
2022-08-12T06:28:14.307Z,51.91
2022-08-12T06:30:42.436Z,51.01
2022-08-12T06:33:22.175Z,50.75
2022-08-12T06:35:57.731Z,50.82
2022-08-12T06:38:26.703Z,51.46
2022-08-12T06:41:14.582Z,51.53
2022-08-12T06:44:06.119Z,52.02
2022-08-12T06:46:30.627Z,50.48
2022-08-12T06:48:59.050Z,50.36
2022-08-12T06:51:28.415Z,50.80
2022-08-12T06:53:57.715Z,51.46
2022-08-12T06:56:39.879Z,50.29
2022-08-12T06:59:31.911Z,48.14
2022-08-12T07:05:15.909Z,47.14
2022-08-12T07:08:33.085Z,47.37
2022-08-12T07:11:09.348Z,46.64
2022-08-12T07:14:19.784Z,45.40
2022-08-12T07:16:52.207Z,45.01
2022-08-12T07:19:20.068Z,45.12
2022-08-12T07:22:02.300Z,44.36
2022-08-12T07:24:29.155Z,43.65
2022-08-12T07:26:55.647Z,42.97
2022-08-12T07:29:23.014Z,42.22
2022-08-12T07:31:49.572Z,42.58
2022-08-12T07:34:17.089Z,42.17
2022-08-12T07:36:45.622Z,41.24
2022-08-12T07:39:13.469Z,42.25
2022-08-12T07:41:41.870Z,40.30
2022-08-12T07:44:09.169Z,39.76
2022-08-12T07:46:41.965Z,39.10
2022-08-12T07:49:13.254Z,38.92
2022-08-12T07:51:40.955Z,38.80
2022-08-12T07:54:09.496Z,38.79
2022-08-12T07:56:41.514Z,38.93
2022-08-12T07:59:09.813Z,37.04
2022-08-12T08:01:43.617Z,37.48
2022-08-12T08:04:28.725Z,37.73
2022-08-12T08:06:55.318Z,36.93
2022-08-12T08:09:23.314Z,37.44
2022-08-12T08:12:19.197Z,37.18
2022-08-12T08:14:47.011Z,36.96
2022-08-12T08:17:17.327Z,34.93
2022-08-12T08:20:02.721Z,35.53
2022-08-12T08:22:41.837Z,35.14
2022-08-12T08:25:34.664Z,36.08
2022-08-12T08:28:02.260Z,35.77
2022-08-12T08:30:30.223Z,35.40
2022-08-12T08:32:57.264Z,34.28
2022-08-12T08:35:25.336Z,34.36
2022-08-12T08:38:11.201Z,34.28
2022-08-12T08:41:00.070Z,33.87
2022-08-12T08:43:27.075Z,34.38
2022-08-12T08:46:10.963Z,33.55
2022-08-12T08:48:41.011Z,33.90
2022-08-12T08:51:07.527Z,34.31
2022-08-12T08:53:34.724Z,34.78
2022-08-12T08:56:05.103Z,33.07
2022-08-12T08:58:32.175Z,32.65
2022-08-12T09:00:59.799Z,31.94
2022-08-12T09:05:09.662Z,32.69
2022-08-12T09:09:13.114Z,31.56
2022-08-12T09:12:11.912Z,32.08
2022-08-12T09:20:27.586Z,32.50
2022-08-12T09:22:57.384Z,31.36
2022-08-12T09:25:33.120Z,31.04
2022-08-12T09:28:04.800Z,30.54
2022-08-12T09:30:41.866Z,30.04
2022-08-12T09:33:15.134Z,31.14
2022-08-12T09:35:46.173Z,31.00
2022-08-12T09:38:29.929Z,30.44
2022-08-12T09:42:07.936Z,30.19
2022-08-12T09:44:05.149Z,30.61
2022-08-12T09:46:34.867Z,30.68
2022-08-12T09:49:13.452Z,30.91
2022-08-12T09:51:44.476Z,29.72
2022-08-12T09:54:31.641Z,30.13
2022-08-12T09:58:46.900Z,30.04
2022-08-12T10:00:12.728Z,29.15
2022-08-12T10:03:03.373Z,28.96
2022-08-12T10:06:19.906Z,28.96
2022-08-12T10:08:27.474Z,28.65
2022-08-12T10:11:18.369Z,29.62
2022-08-12T10:13:46.985Z,29.08
2022-08-12T10:16:23.164Z,28.53
2022-08-12T10:18:51.253Z,28.49
2022-08-12T10:21:21.904Z,28.46
2022-08-12T10:23:51.645Z,27.91
2022-08-12T10:26:42.608Z,28.61
2022-08-12T10:30:03.378Z,28.10
2022-08-12T10:32:44.401Z,29.39
2022-08-12T10:35:09.685Z,28.84
2022-08-12T10:38:36.523Z,29.25
2022-08-12T10:40:28.519Z,27.78
2022-08-12T10:43:16.745Z,28.09
2022-08-12T10:45:43.834Z,27.87
2022-08-12T10:48:21.167Z,28.12
2022-08-12T10:51:01.524Z,28.94
2022-08-12T10:53:44.387Z,28.84
2022-08-12T10:56:19.070Z,27.90
2022-08-12T10:58:47.113Z,26.32
2022-08-12T11:01:26.051Z,26.27
2022-08-12T11:04:23.738Z,26.83
2022-08-12T11:07:07.183Z,26.64
2022-08-12T11:10:00.597Z,26.92
2022-08-12T11:12:56.184Z,26.49
2022-08-12T11:15:33.483Z,26.54
2022-08-12T11:18:11.941Z,26.69
2022-08-12T11:20:44.941Z,26.45
2022-08-12T11:23:26.061Z,26.15
2022-08-12T11:26:01.417Z,25.47
2022-08-12T11:28:33.849Z,25.57
2022-08-12T11:31:02.583Z,25.91
2022-08-12T11:34:06.465Z,25.18
2022-08-12T11:36:16.347Z,25.86
2022-08-12T11:38:50.446Z,25.37
2022-08-12T11:41:30.975Z,24.72
2022-08-12T11:43:59.276Z,25.53
2022-08-12T11:46:25.763Z,25.73
2022-08-12T11:48:52.855Z,25.40
2022-08-12T11:51:20.807Z,25.80
2022-08-12T11:53:58.625Z,25.21
2022-08-12T11:56:38.235Z,24.52
2022-08-12T12:02:03.067Z,25.08
2022-08-12T12:04:39.554Z,25.33
2022-08-12T12:07:11.315Z,24.84
2022-08-12T12:09:53.000Z,25.07
2022-08-12T12:12:22.433Z,25.45
2022-08-12T12:14:55.089Z,25.40
2022-08-12T12:17:25.911Z,25.29
2022-08-12T12:19:53.987Z,25.85
2022-08-12T12:22:23.377Z,25.05
2022-08-12T12:24:53.949Z,25.68
2022-08-12T12:27:37.599Z,23.14
2022-08-12T12:30:17.722Z,24.21
2022-08-12T12:32:53.260Z,23.18
2022-08-12T12:36:16.724Z,23.39
2022-08-12T12:38:12.204Z,23.04
2022-08-12T12:40:44.368Z,22.59
2022-08-12T12:43:12.250Z,23.24
2022-08-12T12:45:44.685Z,23.01
2022-08-12T12:48:18.196Z,23.50
2022-08-12T12:50:45.414Z,22.41
2022-08-12T12:54:06.541Z,24.43
2022-08-12T12:56:33.968Z,23.76
2022-08-12T12:59:02.225Z,23.80
2022-08-12T13:01:32.021Z,23.64
2022-08-12T13:04:02.473Z,22.91
2022-08-12T13:06:30.881Z,22.90
2022-08-12T13:09:02.947Z,22.36
2022-08-12T13:11:53.431Z,22.11
2022-08-12T13:14:28.985Z,21.99
2022-08-12T13:17:01.142Z,22.40
2022-08-12T13:19:37.881Z,21.36
2022-08-12T13:22:19.956Z,21.94
2022-08-12T13:24:55.714Z,22.69
2022-08-12T13:27:35.005Z,22.10
2022-08-12T13:30:06.543Z,20.63
2022-08-12T13:32:35.803Z,21.06
2022-08-12T13:35:04.515Z,20.69
2022-08-12T13:37:56.842Z,21.23
2022-08-12T13:40:25.227Z,21.88
2022-08-12T13:42:57.575Z,21.89
2022-08-12T13:45:29.333Z,21.39
2022-08-12T13:48:00.284Z,21.73
2022-08-12T13:50:36.478Z,22.13
2022-08-12T13:53:23.115Z,21.04
2022-08-12T13:55:59.419Z,22.85
2022-08-12T13:58:29.095Z,23.01
2022-08-12T14:00:58.171Z,21.39
2022-08-12T14:03:27.994Z,22.06
2022-08-12T14:05:57.946Z,21.18
2022-08-12T14:08:28.369Z,21.28
2022-08-12T14:11:02.219Z,21.17
2022-08-12T14:14:04.663Z,21.72
2022-08-12T14:16:38.015Z,21.67
2022-08-12T14:19:05.301Z,22.22
2022-08-12T14:22:01.065Z,21.65
2022-08-12T14:24:35.391Z,22.38
2022-08-12T14:27:09.392Z,21.97
2022-08-12T14:30:04.610Z,20.86
2022-08-12T14:32:34.630Z,20.37
2022-08-12T14:35:03.019Z,20.99
2022-08-12T14:37:57.113Z,20.54
2022-08-12T14:40:18.468Z,20.91
2022-08-12T14:42:46.887Z,20.70
2022-08-12T14:45:13.951Z,20.21
2022-08-12T14:47:58.372Z,20.71
2022-08-12T14:50:57.318Z,20.22
2022-08-12T14:55:28.422Z,21.51
2022-08-12T14:59:20.386Z,20.29
2022-08-12T15:01:49.548Z,20.77
2022-08-12T15:04:17.259Z,21.29
2022-08-12T15:06:52.041Z,20.50
2022-08-12T15:09:18.899Z,21.28
2022-08-12T15:12:04.247Z,20.95
2022-08-12T15:14:31.577Z,20.79
2022-08-12T15:17:01.226Z,21.45
2022-08-12T15:20:11.275Z,20.25
2022-08-12T15:22:38.483Z,21.08
2022-08-12T15:25:07.169Z,21.01
2022-08-12T15:28:05.643Z,20.04
2022-08-12T15:30:24.642Z,20.56
2022-08-12T15:32:53.529Z,21.73
2022-08-12T15:35:21.054Z,21.39
2022-08-12T15:38:10.177Z,21.66
2022-08-12T15:40:46.822Z,21.10
2022-08-12T15:43:35.489Z,21.10
2022-08-12T15:46:06.923Z,20.66
2022-08-12T15:48:37.703Z,20.72
2022-08-12T15:51:04.569Z,20.65
2022-08-12T15:53:53.214Z,21.19
2022-08-12T15:56:29.491Z,21.35
2022-08-12T15:58:59.261Z,20.97
2022-08-12T16:01:35.355Z,21.33
2022-08-12T16:04:03.212Z,20.92
2022-08-12T16:09:56.193Z,21.64
2022-08-12T16:12:14.698Z,20.92
2022-08-12T16:14:44.413Z,22.12
2022-08-12T16:17:15.626Z,21.70
2022-08-12T16:20:03.383Z,20.77
2022-08-12T16:22:29.236Z,20.96
2022-08-12T16:24:56.632Z,20.73
2022-08-12T16:27:27.792Z,20.99
2022-08-12T16:29:57.654Z,21.56
2022-08-12T16:32:31.941Z,21.03
2022-08-12T16:34:59.936Z,21.59
2022-08-12T16:37:32.518Z,21.35
2022-08-12T16:40:04.969Z,21.00
2022-08-12T16:42:38.957Z,20.91
2022-08-12T16:45:13.737Z,22.11
2022-08-12T16:47:58.533Z,21.16
2022-08-12T16:50:30.871Z,20.75
2022-08-12T16:52:59.838Z,21.89
2022-08-12T16:55:41.718Z,21.36
2022-08-12T16:58:18.435Z,21.98
2022-08-12T17:01:03.027Z,22.38
2022-08-12T17:03:36.613Z,22.52
2022-08-12T17:06:06.409Z,22.34
2022-08-12T17:08:39.244Z,22.53
2022-08-12T17:11:18.017Z,23.05
2022-08-12T17:13:53.472Z,22.50
2022-08-12T17:16:21.122Z,22.62
2022-08-12T17:18:57.515Z,22.81
2022-08-12T17:21:40.720Z,22.65
2022-08-12T17:24:15.337Z,23.18
2022-08-12T17:26:49.347Z,23.29
2022-08-12T17:29:19.479Z,23.11
2022-08-12T17:32:02.778Z,23.51
2022-08-12T17:34:48.897Z,23.27
2022-08-12T17:37:16.473Z,23.91
2022-08-12T17:40:12.245Z,24.46
2022-08-12T17:42:36.808Z,24.22
2022-08-12T17:45:17.077Z,23.77
2022-08-12T17:48:00.952Z,24.13
2022-08-12T17:50:39.860Z,24.79
2022-08-12T17:53:10.111Z,24.24
2022-08-12T17:55:48.226Z,24.98
2022-08-12T17:58:37.634Z,24.81
2022-08-12T18:01:06.003Z,24.73
2022-08-12T18:04:04.263Z,24.87
2022-08-12T18:06:28.250Z,24.85
2022-08-12T18:08:58.743Z,25.36
2022-08-12T18:12:04.482Z,25.20
2022-08-12T18:14:37.212Z,25.63
2022-08-12T18:17:08.808Z,25.28
2022-08-12T18:20:04.907Z,25.58
2022-08-12T18:22:30.650Z,26.15
2022-08-12T18:26:12.269Z,26.05
2022-08-12T18:28:15.846Z,26.17
2022-08-12T18:30:52.888Z,26.42
2022-08-12T18:33:24.960Z,26.72
2022-08-12T18:35:55.625Z,27.32
2022-08-12T18:38:25.267Z,27.43
2022-08-12T18:41:21.844Z,27.72
2022-08-12T18:44:02.349Z,28.18
2022-08-12T18:46:38.050Z,28.38
2022-08-12T18:49:18.321Z,28.05
2022-08-12T18:51:55.147Z,28.82
2022-08-12T18:54:25.731Z,28.63
2022-08-12T18:56:54.704Z,28.90
2022-08-12T19:00:01.022Z,28.72
2022-08-12T19:02:21.987Z,28.47
2022-08-12T19:04:53.386Z,28.88
2022-08-12T19:07:23.231Z,28.90
2022-08-12T19:09:58.959Z,28.92
2022-08-12T19:12:57.525Z,29.65
2022-08-12T19:15:25.943Z,30.20
2022-08-12T19:17:56.856Z,30.12
2022-08-12T19:20:29.885Z,30.73
2022-08-12T19:23:00.054Z,30.77
2022-08-12T19:25:59.548Z,30.64
2022-08-12T19:28:29.585Z,30.81
2022-08-12T19:31:56.132Z,31.15
2022-08-12T19:37:26.632Z,31.32
2022-08-12T19:40:10.003Z,31.83
2022-08-12T19:42:53.626Z,32.23
2022-08-12T19:45:20.714Z,32.73
2022-08-12T19:47:48.713Z,32.58
2022-08-12T19:50:20.196Z,33.06
2022-08-12T19:52:47.722Z,32.71
2022-08-12T19:55:21.509Z,33.15
2022-08-12T19:58:02.194Z,33.26
2022-08-12T20:00:31.648Z,33.67
2022-08-12T20:03:00.344Z,33.16
2022-08-12T20:06:06.996Z,33.93
2022-08-12T20:08:33.101Z,34.12
2022-08-12T20:12:11.829Z,34.07
2022-08-12T20:14:01.134Z,34.83
2022-08-12T20:16:53.039Z,34.89
2022-08-12T20:19:16.061Z,34.89
2022-08-12T20:21:43.423Z,34.52
2022-08-12T20:24:12.150Z,34.98
2022-08-12T20:26:42.621Z,34.85
2022-08-12T20:29:17.992Z,35.43
2022-08-12T20:31:47.700Z,34.85
2022-08-12T20:34:18.446Z,34.68
2022-08-12T20:36:45.322Z,35.44
2022-08-12T20:39:37.375Z,34.73
2022-08-12T20:42:04.254Z,35.11
2022-08-12T20:44:39.726Z,35.72
2022-08-12T20:47:18.235Z,35.65
2022-08-12T20:49:56.022Z,35.76
2022-08-12T20:52:30.220Z,35.92
2022-08-12T20:54:57.686Z,35.48
2022-08-12T20:57:24.389Z,36.09
2022-08-12T21:00:00.575Z,36.10
2022-08-12T21:02:30.510Z,36.63
2022-08-12T21:05:25.829Z,37.48
2022-08-12T21:08:12.524Z,38.46
2022-08-12T21:10:42.005Z,40.37
2022-08-12T21:13:20.371Z,40.26
2022-08-12T21:15:54.995Z,41.24
2022-08-12T21:18:28.336Z,41.00
2022-08-12T21:20:57.169Z,41.38
2022-08-12T21:23:25.604Z,40.87
2022-08-12T21:26:01.652Z,41.57
2022-08-12T21:28:31.480Z,40.88
2022-08-12T21:32:35.174Z,41.10
2022-08-12T21:34:08.251Z,40.84
2022-08-12T21:36:37.490Z,40.99
2022-08-12T21:39:22.039Z,41.45
2022-08-12T21:41:53.340Z,41.57
2022-08-12T21:45:43.965Z,41.47
2022-08-12T21:47:20.902Z,41.89
2022-08-12T21:50:02.829Z,41.25
2022-08-12T21:52:41.105Z,40.31
2022-08-12T21:55:17.673Z,40.41
2022-08-12T21:57:53.227Z,40.04
2022-08-12T22:00:33.552Z,40.03
2022-08-12T22:04:02.879Z,39.35
2022-08-12T22:06:25.863Z,39.57
2022-08-12T22:09:04.020Z,39.35
2022-08-12T22:11:41.780Z,38.79
2022-08-12T22:14:10.283Z,38.75
2022-08-12T22:16:46.953Z,38.74
2022-08-12T22:19:19.150Z,38.87
2022-08-12T22:21:52.165Z,38.24
2022-08-12T22:24:27.019Z,38.99
2022-08-12T22:27:08.243Z,38.45
2022-08-12T22:30:19.817Z,38.60
2022-08-12T22:32:51.640Z,38.86
2022-08-12T22:35:56.639Z,38.95
2022-08-12T22:38:24.888Z,38.45
2022-08-12T22:41:02.148Z,38.67
2022-08-12T22:43:59.057Z,38.86
2022-08-12T22:46:37.256Z,39.23
2022-08-12T22:49:06.569Z,39.10
2022-08-12T22:51:57.742Z,39.50
2022-08-12T22:54:35.709Z,39.95
2022-08-12T22:57:04.444Z,39.42
2022-08-12T22:59:51.214Z,39.74
2022-08-12T23:02:17.773Z,40.08
2022-08-12T23:04:59.487Z,40.34
2022-08-12T23:07:27.483Z,41.07
2022-08-12T23:10:03.674Z,41.07
2022-08-12T23:12:49.437Z,41.05
2022-08-12T23:15:16.249Z,41.38
2022-08-12T23:17:43.459Z,41.39
2022-08-12T23:20:12.950Z,41.36
2022-08-12T23:23:08.833Z,41.28
2022-08-12T23:25:54.251Z,41.53
2022-08-12T23:28:31.282Z,42.33
2022-08-12T23:31:04.381Z,42.81
2022-08-12T23:34:02.349Z,43.01
2022-08-12T23:36:31.757Z,43.18
2022-08-12T23:40:13.261Z,43.67
2022-08-12T23:42:18.125Z,42.99
2022-08-12T23:44:42.949Z,42.92
2022-08-12T23:47:11.602Z,43.21
2022-08-12T23:49:58.159Z,43.09
2022-08-12T23:52:34.466Z,43.68
2022-08-12T23:55:24.015Z,44.06
2022-08-12T23:57:51.111Z,44.77
